Swift Current Airport
CYYN : now visible

Airfield :











YOU CAN JOIN US ON...

 
LOGIN :

Register | Disclaimer

   EN    FR    IT 

 









Legend :    VFR   Marginal VFR   IFR   Intensive IFR   Very Intensive IFR
Visi :
Ceiling :
>= 8 km
>= 3000ft
5 to 8 km
1000 to 3000 ft
1500m to 5 km
500 to 1000 ft
800 to 1500m
200 to 500 ft
< 800m
< 200 ft
Symbols :   Thunderstorms  Fog  Heavy snow  Heavy precipitations  Wind > 20 kt






- Airport Elevation : 2680 ft
- IATA code : YYN


CYYN - Swift Current

CURRENT METAR :
  • 080800Z AUTO 26011KT 9SM CLR M08/M11 A2990 RMK ICE MISG SLP178

EXPIRED METARs :
  • 080700Z AUTO 24013KT 9SM CLR M09/M12 A2989 RMK ICE MISG SLP180
  • 080600Z AUTO 24012KT 9SM CLR M08/M12 A2988 RMK ICE MISG SLP180

TAF TAF CYYN
Valid from the 08 at 06:00 until the 08 at 18:00 UTC


080540Z 0806/0818 20012KT P6SM SKC RMK FCST BASED ON AUTO OBS. NXT FCST BY 081200Z
CZWG FIR / North America



MET'MAP, your aeronautical weather chart ! - Copyright ORBIFLY December 2007 - Disclaimer

ORBIFLY MET'MAP TEAM :

Programming & Development : Alexandra Zaïnal
Original concept : Baudouin d'Aumeries
Technical & hardware support : Manuel Goepfert
Assistance : Marc-Olivier Méhu




SOURCES & CREDITS :

   NOAA       Earth
Advisory